Time;durP1;ratioP1;P1;durP2;ratioP2;P2;SDS_P1;SDS_P2;PMS_P1;PMS_P2;Temp;Humidity;BMP_temperature;BMP_pressure;BME280_temperature;BME280_humidity;BME280_pressure;Samples;Min_cycle;Max_cycle;Signal;HPM_P1;HPM_P2
2022/09/22 00:00:06;;;;;;;6.00;4.30;;;;;;;9.47;79.86;100571.80;106218;1270;97867;-72
2022/09/22 00:02:59;;;;;;;9.50;4.60;;;;;;;9.46;79.76;100567.67;106186;1271;138331;-71
2022/09/22 00:05:31;;;;;;;7.40;4.40;;;;;;;9.45;79.91;100566.14;106165;1271;112434;-72
2022/09/22 00:08:04;;;;;;;7.90;5.00;;;;;;;9.43;79.90;100566.89;106221;1271;109087;-72
2022/09/22 00:10:36;;;;;;;6.80;4.60;;;;;;;9.38;79.88;100564.02;106039;1270;138385;-72
2022/09/22 00:13:08;;;;;;;7.00;4.20;;;;;;;9.37;79.96;100563.19;106174;1271;97813;-72
2022/09/22 00:15:46;;;;;;;8.70;5.20;;;;;;;9.35;80.03;100561.16;106080;1270;138146;-73
2022/09/22 00:18:18;;;;;;;10.40;4.50;;;;;;;9.32;80.12;100559.64;106279;1271;111176;-72
2022/09/22 00:20:51;;;;;;;6.60;4.90;;;;;;;9.31;80.23;100562.80;106127;1268;138838;-72
2022/09/22 00:23:26;;;;;;;5.40;4.40;;;;;;;9.29;80.27;100560.59;106225;1271;108879;-73
2022/09/22 00:25:58;;;;;;;7.60;4.60;;;;;;;9.27;80.44;100558.72;106141;1271;97821;-72
2022/09/22 00:28:31;;;;;;;7.20;4.10;;;;;;;9.26;80.53;100560.66;106109;1271;138864;-72
2022/09/22 00:31:08;;;;;;;5.80;4.20;;;;;;;9.26;80.66;100561.88;106149;1270;112737;-72
2022/09/22 00:33:39;;;;;;;;;;;;;;;9.24;80.68;100560.89;106102;1271;139014;-72
2022/09/22 00:36:13;;;;;;;8.70;4.80;;;;;;;9.22;80.84;100560.75;106110;1271;108878;-72
2022/09/22 00:38:45;;;;;;;6.70;4.70;;;;;;;9.21;80.86;100560.07;106084;1271;138492;-73
2022/09/22 00:41:21;;;;;;;5.90;5.00;;;;;;;9.21;80.97;100556.27;106233;1271;98665;-72
2022/09/22 00:44:29;;;;;;;7.30;4.50;;;;;;;9.23;81.04;100559.52;106099;1271;111414;-72
2022/09/22 00:47:06;;;;;;;5.70;4.50;;;;;;;9.23;81.10;100556.39;107630;1270;108886;-71
2022/09/22 00:49:46;;;;;;;7.70;4.70;;;;;;;9.24;81.16;100556.89;107733;1271;107245;-71
2022/09/22 00:52:23;;;;;;;6.50;4.60;;;;;;;9.25;81.21;100554.61;107678;1270;139051;-71
2022/09/22 00:54:58;;;;;;;5.30;4.40;;;;;;;9.26;81.11;100554.42;107258;1271;96976;-71
2022/09/22 00:57:34;;;;;;;5.80;4.80;;;;;;;9.27;81.16;100557.33;106141;1270;138162;-73
2022/09/22 01:00:10;;;;;;;6.30;4.60;;;;;;;9.28;81.09;100553.32;106264;1271;109208;-72
2022/09/22 01:02:46;;;;;;;6.40;4.30;;;;;;;9.29;81.09;100551.91;107681;1270;139366;-72
2022/09/22 01:05:19;;;;;;;6.00;4.60;;;;;;;9.28;81.14;100546.55;107860;1270;96049;-72
2022/09/22 01:07:53;;;;;;;5.60;4.40;;;;;;;9.28;81.06;100546.73;107844;1270;95897;-72
2022/09/22 01:10:26;;;;;;;5.20;4.10;;;;;;;9.27;80.93;100558.20;107704;1270;138336;-72
2022/09/22 01:13:07;;;;;;;5.90;4.20;;;;;;;9.26;81.03;100558.75;107851;1270;108999;-71
2022/09/22 01:15:47;;;;;;;4.50;4.00;;;;;;;9.26;81.07;100556.14;107701;1270;138838;-72
2022/09/22 01:18:26;;;;;;;5.30;4.10;;;;;;;9.26;81.02;100555.96;107835;1270;96324;-71
2022/09/22 01:21:21;;;;;;;6.80;4.30;;;;;;;9.26;81.00;100550.23;107511;1270;139146;-72
2022/09/22 01:24:32;;;;;;;6.20;3.90;;;;;;;9.26;80.86;100552.31;106197;1270;112526;-72
2022/09/22 01:27:27;;;;;;;9.30;4.40;;;;;;;9.23;80.88;100551.86;106119;1270;140220;-73
2022/09/22 01:30:19;;;;;;;4.70;3.80;;;;;;;9.22;80.89;100555.71;106156;1270;108918;-72
2022/09/22 01:33:09;;;;;;;5.10;4.00;;;;;;;9.21;80.93;100561.30;106120;1270;138444;-72
2022/09/22 01:35:49;;;;;;;7.30;4.30;;;;;;;9.18;80.95;100562.40;106219;1270;97831;-71
2022/09/22 01:38:32;;;;;;;5.10;4.40;;;;;;;9.17;80.87;100561.57;106209;1270;112600;-73
2022/09/22 01:41:09;;;;;;;4.60;4.10;;;;;;;9.15;80.97;100563.31;107831;1270;107576;-72
2022/09/22 01:43:42;;;;;;;;;;;;;;;9.14;80.99;100565.06;107815;1270;108788;-71
2022/09/22 01:46:20;;;;;;;5.70;4.00;;;;;;;9.12;81.05;100563.90;107732;1270;126497;-72
2022/09/22 01:48:55;;;;;;;8.00;4.60;;;;;;;9.13;81.11;100565.27;107303;1270;96184;-72
2022/09/22 01:51:31;;;;;;;5.30;4.40;;;;;;;9.13;81.07;100564.58;106166;1270;138793;-73
2022/09/22 01:54:12;;;;;;;6.80;4.30;;;;;;;9.13;81.06;100561.27;106187;1270;108822;-73
2022/09/22 01:56:49;;;;;;;5.20;4.50;;;;;;;9.12;81.04;100560.23;106063;1270;138947;-72
2022/09/22 01:59:27;;;;;;;7.50;4.40;;;;;;;9.11;80.98;100564.27;106139;1271;98519;-73
2022/09/22 02:02:03;;;;;;;5.30;4.10;;;;;;;9.08;80.98;100569.88;106190;1270;97796;-73
2022/09/22 02:04:40;;;;;;;5.90;4.20;;;;;;;9.07;81.11;100570.41;106041;1270;138449;-73
2022/09/22 02:07:16;;;;;;;8.60;4.80;;;;;;;9.08;81.17;100566.77;106213;1270;107767;-73
2022/09/22 02:09:50;;;;;;;6.00;4.70;;;;;;;9.08;81.17;100568.14;106124;1270;138414;-73
2022/09/22 02:12:22;;;;;;;6.40;5.30;;;;;;;9.08;81.33;100567.45;106166;1270;99084;-72
2022/09/22 02:14:54;;;;;;;6.00;5.00;;;;;;;9.10;81.33;100563.41;106103;1270;139411;-73
2022/09/22 02:17:27;;;;;;;6.50;5.70;;;;;;;9.11;81.29;100561.50;106150;1270;111028;-72
2022/09/22 02:20:08;;;;;;;5.90;5.10;;;;;;;9.12;81.29;100563.21;106224;1270;107831;-72
2022/09/22 02:22:40;;;;;;;9.20;5.40;;;;;;;9.13;81.32;100559.55;106092;1270;138349;-71
2022/09/22 02:25:13;;;;;;;6.50;5.10;;;;;;;9.11;81.29;100557.16;106231;1270;97921;-72
2022/09/22 02:27:47;;;;;;;9.20;5.50;;;;;;;9.11;81.30;100558.73;106057;1270;139975;-72
2022/09/22 02:30:19;;;;;;;9.00;5.90;;;;;;;9.11;81.44;100552.14;106161;1270;112220;-73
2022/09/22 02:32:54;;;;;;;11.10;6.40;;;;;;;9.11;81.39;100551.95;106113;1270;138602;-73
2022/09/22 02:35:30;;;;;;;11.80;6.70;;;;;;;9.11;81.43;100550.05;106225;1270;110163;-73
2022/09/22 02:38:08;;;;;;;8.20;6.50;;;;;;;9.12;81.45;100555.05;106195;1270;97819;-73
2022/09/22 02:40:46;;;;;;;8.10;6.90;;;;;;;9.11;81.46;100556.45;106058;1270;139706;-73
2022/09/22 02:43:24;;;;;;;10.20;7.10;;;;;;;9.12;81.61;100560.45;106281;1270;112525;-73
2022/09/22 02:46:03;;;;;;;9.40;7.80;;;;;;;9.13;81.64;100561.80;106104;1270;138739;-72
2022/09/22 02:48:40;;;;;;;12.20;8.10;;;;;;;9.13;81.60;100560.74;106209;1271;108860;-72
2022/09/22 02:51:13;;;;;;;10.00;7.90;;;;;;;9.13;81.63;100561.63;106053;1270;138730;-71
2022/09/22 02:53:46;;;;;;;10.30;8.00;;;;;;;9.13;81.63;100562.84;106299;1270;98400;-72
2022/09/22 02:56:18;;;;;;;13.40;7.80;;;;;;;9.15;81.71;100565.06;106168;1270;111403;-71
2022/09/22 02:58:50;;;;;;;13.40;8.70;;;;;;;9.16;81.64;100560.54;106098;1270;138790;-72
2022/09/22 03:01:29;;;;;;;9.90;8.30;;;;;;;9.15;81.75;100558.45;106257;1270;108996;-72
2022/09/22 03:04:02;;;;;;;9.40;8.10;;;;;;;9.16;81.78;100562.80;106146;1270;139034;-72
2022/09/22 03:06:35;;;;;;;10.40;8.90;;;;;;;9.17;81.71;100561.21;106263;1270;97825;-72
2022/09/22 03:09:07;;;;;;;10.90;9.00;;;;;;;9.17;81.77;100564.85;106164;1270;138475;-72
2022/09/22 03:11:39;;;;;;;11.70;9.40;;;;;;;9.18;81.76;100565.52;106280;1270;107792;-72
2022/09/22 03:14:11;;;;;;;12.70;8.90;;;;;;;9.19;81.79;100568.46;106224;1270;108660;-72
2022/09/22 03:16:43;;;;;;;12.90;9.40;;;;;;;9.19;81.77;100567.41;106137;1270;141146;-72
2022/09/22 03:19:15;;;;;;;10.70;8.50;;;;;;;9.20;81.82;100568.42;106253;1271;97910;-72
2022/09/22 03:21:48;;;;;;;12.70;8.70;;;;;;;9.21;81.88;100564.92;105993;1271;138302;-72
2022/09/22 03:24:20;;;;;;;11.50;8.90;;;;;;;9.22;81.93;100560.05;106216;1270;110241;-71
2022/09/22 03:26:52;;;;;;;10.60;9.10;;;;;;;9.23;81.85;100559.69;106034;1271;138674;-72
2022/09/22 03:29:24;;;;;;;11.40;9.80;;;;;;;9.23;81.90;100557.96;106221;1271;97848;-71
2022/09/22 03:31:56;;;;;;;11.40;9.40;;;;;;;9.24;81.94;100559.84;106209;1270;97823;-72
2022/09/22 03:34:28;;;;;;;12.00;10.30;;;;;;;9.24;81.94;100563.98;106039;1271;138425;-72
2022/09/22 03:37:00;;;;;;;18.00;10.10;;;;;;;9.25;81.91;100558.95;106186;1270;108111;-72
2022/09/22 03:39:32;;;;;;;14.50;9.50;;;;;;;9.26;81.99;100559.44;106010;1271;139961;-72
2022/09/22 03:42:05;;;;;;;12.10;10.00;;;;;;;9.27;81.86;100562.36;106193;1270;97812;-72
2022/09/22 03:44:37;;;;;;;12.40;9.80;;;;;;;9.27;81.99;100559.77;106134;1270;139063;-71
2022/09/22 03:47:09;;;;;;;12.00;10.20;;;;;;;9.27;81.91;100561.84;106308;1270;112389;-72
2022/09/22 03:49:41;;;;;;;12.40;9.50;;;;;;;9.28;82.00;100561.11;106314;1270;109060;-72
2022/09/22 03:52:13;;;;;;;12.10;9.70;;;;;;;9.29;82.03;100561.80;106081;1270;139666;-72
2022/09/22 03:54:45;;;;;;;12.30;9.50;;;;;;;9.29;82.00;100566.65;106329;1270;97858;-73
2022/09/22 03:57:17;;;;;;;11.70;9.80;;;;;;;9.30;82.05;100562.98;106132;1270;138614;-72
2022/09/22 03:59:50;;;;;;;13.00;10.20;;;;;;;9.30;82.03;100565.41;106315;1270;112408;-73
2022/09/22 04:02:22;;;;;;;10.90;9.50;;;;;;;9.30;82.04;100565.77;106098;1269;223120;-73
2022/09/22 04:04:54;;;;;;;12.90;9.90;;;;;;;9.30;82.13;100568.17;106152;1270;138345;-73
2022/09/22 04:07:26;;;;;;;16.30;9.50;;;;;;;9.32;82.13;100570.05;106093;1271;97941;-72
2022/09/22 04:09:58;;;;;;;11.80;9.50;;;;;;;9.34;82.15;100571.94;106246;1270;138519;-72
2022/09/22 04:12:30;;;;;;;10.70;9.60;;;;;;;9.35;82.10;100573.64;106198;1270;112526;-73
2022/09/22 04:15:03;;;;;;;10.90;9.60;;;;;;;9.36;82.18;100575.54;106198;1270;138605;-72
2022/09/22 04:17:35;;;;;;;13.40;9.80;;;;;;;9.38;82.20;100570.81;106220;1270;108818;-72
2022/09/22 04:20:11;;;;;;;12.20;9.70;;;;;;;9.40;82.15;100571.81;106210;1270;97934;-72
2022/09/22 04:22:43;;;;;;;13.30;9.50;;;;;;;9.40;82.11;100567.29;106956;1270;139842;-73
2022/09/22 04:25:15;;;;;;;13.10;9.60;;;;;;;9.42;82.16;100570.55;106206;1270;112466;-72
2022/09/22 04:27:47;;;;;;;15.40;10.20;;;;;;;9.42;82.16;100573.48;106121;1270;139526;-72
2022/09/22 04:30:19;;;;;;;11.20;9.40;;;;;;;9.44;82.20;100577.10;106289;1270;107656;-72
2022/09/22 04:32:52;;;;;;;11.30;9.30;;;;;;;9.43;82.02;100573.63;106041;1271;138816;-73
2022/09/22 04:35:24;;;;;;;10.00;8.90;;;;;;;9.43;82.06;100574.52;106102;1271;97867;-73
2022/09/22 04:37:58;;;;;;;11.80;8.70;;;;;;;9.42;81.95;100576.96;106303;1270;112497;-73
2022/09/22 04:40:30;;;;;;;12.70;8.80;;;;;;;9.41;82.01;100582.55;106124;1270;139330;-72
2022/09/22 04:43:02;;;;;;;14.20;11.50;;;;;;;9.42;82.15;100581.66;106189;1270;107912;-73
2022/09/22 04:45:34;;;;;;;10.20;9.00;;;;;;;9.43;82.12;100584.93;106187;1270;138863;-72
2022/09/22 04:48:10;;;;;;;11.90;9.00;;;;;;;9.43;82.22;100585.42;106314;1270;97825;-72
2022/09/22 04:50:43;;;;;;;14.70;9.50;;;;;;;9.45;82.31;100585.90;106144;1270;138493;-72
2022/09/22 04:53:19;;;;;;;12.70;9.00;;;;;;;9.47;82.34;100588.99;106218;1270;108861;-72
2022/09/22 04:55:52;;;;;;;10.60;8.90;;;;;;;9.49;82.29;100586.86;106273;1270;108792;-72
2022/09/22 04:58:24;;;;;;;10.70;8.50;;;;;;;9.51;82.20;100586.65;106094;1270;138500;-73
2022/09/22 05:01:01;;;;;;;13.00;9.60;;;;;;;9.52;82.20;100586.81;106286;1270;97831;-73
2022/09/22 05:03:36;;;;;;;11.00;9.10;;;;;;;9.54;82.33;100589.38;106137;1270;138452;-72
2022/09/22 05:06:09;;;;;;;10.30;9.20;;;;;;;9.55;82.17;100590.55;106178;1271;107828;-72
2022/09/22 05:08:42;;;;;;;12.70;9.50;;;;;;;9.55;82.17;100585.52;106143;1270;139068;-74
2022/09/22 05:11:14;;;;;;;10.50;9.10;;;;;;;9.57;82.19;100585.98;106227;1270;97923;-72
2022/09/22 05:13:46;;;;;;;14.40;9.30;;;;;;;9.60;82.28;100586.63;106188;1270;97844;-71
2022/09/22 05:16:19;;;;;;;11.30;8.70;;;;;;;9.61;82.16;100589.53;106132;1270;138466;-74
2022/09/22 05:18:51;;;;;;;10.60;8.80;;;;;;;9.62;82.08;100593.67;106216;1270;108808;-72
2022/09/22 05:21:23;;;;;;;10.40;8.80;;;;;;;9.65;82.17;100596.74;106105;1270;138587;-72
2022/09/22 05:23:56;;;;;;;10.70;8.60;;;;;;;9.67;82.09;100590.78;106229;1270;97819;-72
2022/09/22 05:26:29;;;;;;;14.30;9.20;;;;;;;9.70;82.06;100596.83;106258;1270;97725;-72
2022/09/22 05:29:01;;;;;;;10.70;8.30;;;;;;;9.71;82.08;100596.29;106285;1270;112455;-73
2022/09/22 05:31:33;;;;;;;9.50;8.50;;;;;;;9.74;82.00;100599.00;106265;1270;108816;-72
2022/09/22 05:34:06;;;;;;;12.00;8.50;;;;;;;9.76;81.96;100599.81;106154;1270;138526;-73
2022/09/22 05:36:38;;;;;;;10.20;8.60;;;;;;;9.78;82.01;100603.76;106226;1270;97839;-72
2022/09/22 05:39:10;;;;;;;10.80;8.00;;;;;;;9.81;81.90;100603.67;106165;1270;138600;-74
2022/09/22 05:41:42;;;;;;;11.30;9.30;;;;;;;9.83;81.97;100607.95;106185;1270;112096;-72
2022/09/22 05:44:14;;;;;;;10.80;8.30;;;;;;;9.88;82.14;100603.35;106185;1270;107108;-74
2022/09/22 05:46:47;;;;;;;10.20;8.30;;;;;;;9.92;81.98;100605.00;106110;1270;138863;-73
2022/09/22 05:49:19;;;;;;;12.50;9.50;;;;;;;9.94;81.78;100603.73;106269;1270;98290;-73
2022/09/22 05:51:54;;;;;;;12.50;8.40;;;;;;;9.94;81.67;100608.58;106160;1270;139150;-74
2022/09/22 05:54:26;;;;;;;11.50;8.50;;;;;;;9.94;81.64;100609.61;106209;1270;111487;-72
2022/09/22 05:56:59;;;;;;;11.90;8.90;;;;;;;9.95;81.61;100612.89;106017;1271;140324;-72
2022/09/22 05:59:31;;;;;;;9.70;8.50;;;;;;;9.96;81.49;100611.13;106252;1270;107761;-73
2022/09/22 06:02:06;;;;;;;12.60;8.00;;;;;;;9.97;81.50;100606.77;106275;1260;97939;-73
2022/09/22 06:04:56;;;;;;;11.20;9.20;;;;;;;10.01;81.61;100608.41;106082;1270;139884;-73
2022/09/22 06:07:29;;;;;;;9.10;8.20;;;;;;;10.04;81.64;100609.19;106206;1270;111448;-72
2022/09/22 06:10:01;;;;;;;11.20;8.20;;;;;;;10.08;81.44;100611.90;106049;1270;138639;-73
2022/09/22 06:12:33;;;;;;;10.70;8.30;;;;;;;10.10;81.35;100614.81;106206;1270;108909;-73
2022/09/22 06:15:06;;;;;;;11.40;7.90;;;;;;;10.10;81.37;100614.45;106039;1270;139643;-72
2022/09/22 06:17:39;;;;;;;12.40;8.30;;;;;;;10.11;81.26;100611.81;106115;1270;97808;-73
2022/09/22 06:20:12;;;;;;;13.80;8.60;;;;;;;10.14;81.32;100611.58;106234;1270;112618;-73
2022/09/22 06:22:44;;;;;;;9.70;8.30;;;;;;;10.16;81.41;100611.33;106055;1270;138799;-74
2022/09/22 06:25:16;;;;;;;9.80;8.10;;;;;;;10.18;81.27;100609.71;106167;1270;108685;-73
2022/09/22 06:27:58;;;;;;;10.80;8.00;;;;;;;10.21;81.14;100613.85;106047;1270;138709;-73
2022/09/22 06:30:31;;;;;;;11.30;8.30;;;;;;;10.22;81.11;100609.81;106204;1270;97825;-73
2022/09/22 06:33:04;;;;;;;10.70;7.80;;;;;;;10.25;81.01;100609.60;106079;1270;138727;-73
2022/09/22 06:35:36;;;;;;;13.60;8.20;;;;;;;10.28;81.03;100611.79;106168;1269;108914;-73
2022/09/22 06:38:12;;;;;;;14.20;8.40;;;;;;;10.34;81.13;100610.23;106085;1270;108895;-73
2022/09/22 06:40:45;;;;;;;9.90;8.30;;;;;;;10.37;81.13;100608.92;106178;1270;138930;-73
2022/09/22 06:43:21;;;;;;;10.20;7.30;;;;;;;10.42;81.09;100609.52;106169;1270;97845;-71
2022/09/22 06:45:52;;;;;;;;;;;;;;;10.48;80.99;100612.13;106063;1270;139149;-72
2022/09/22 06:48:24;;;;;;;12.90;7.20;;;;;;;10.54;80.95;100614.41;106068;1270;107624;-73
2022/09/22 06:50:56;;;;;;;13.20;8.20;;;;;;;10.60;80.94;100616.85;106136;1270;138932;-73
2022/09/22 06:53:29;;;;;;;14.20;8.30;;;;;;;10.67;80.77;100620.15;106248;1270;97824;-73
2022/09/22 06:56:05;;;;;;;11.80;7.70;;;;;;;10.73;80.76;100625.20;106207;1270;98236;-72
2022/09/22 06:58:38;;;;;;;12.40;8.10;;;;;;;10.80;80.56;100624.34;106020;1270;138620;-73
2022/09/22 07:01:30;;;;;;;9.20;7.80;;;;;;;10.86;80.35;100621.73;106147;1270;108844;-75
2022/09/22 07:04:03;;;;;;;11.50;8.60;;;;;;;10.94;80.41;100624.30;105956;1271;138508;-72
2022/09/22 07:06:39;;;;;;;13.50;8.80;;;;;;;11.01;80.24;100619.92;106041;1271;97806;-73
2022/09/22 07:09:11;;;;;;;12.20;8.40;;;;;;;11.09;80.16;100622.64;107617;1271;139356;-73
2022/09/22 07:11:43;;;;;;;12.50;9.70;;;;;;;11.23;79.94;100626.10;107733;1271;112528;-71
2022/09/22 07:14:19;;;;;;;13.70;8.90;;;;;;;11.42;79.89;100620.98;107767;1271;109002;-72
2022/09/22 07:16:54;;;;;;;12.50;6.70;;;;;;;11.58;79.37;100622.77;107447;1271;138713;-72
2022/09/22 07:19:26;;;;;;;9.50;6.40;;;;;;;11.73;79.16;100622.50;107673;1271;96392;-73
2022/09/22 07:21:58;;;;;;;6.50;5.80;;;;;;;11.86;78.94;100623.17;107619;1270;138736;-72
2022/09/22 07:24:30;;;;;;;7.10;5.70;;;;;;;11.96;78.43;100626.50;107719;1271;112510;-72
2022/09/22 07:27:03;;;;;;;6.60;5.70;;;;;;;12.04;78.15;100625.38;107606;1270;138931;-73
2022/09/22 07:29:36;;;;;;;6.20;5.60;;;;;;;12.21;78.20;100625.00;107216;1271;107733;-72
2022/09/22 07:32:09;;;;;;;8.10;4.70;;;;;;;12.59;77.75;100628.07;106096;1271;97849;-73
2022/09/22 07:34:42;;;;;;;9.50;5.20;;;;;;;12.97;77.05;100623.59;106651;1271;138435;-73
2022/09/22 07:37:22;;;;;;;7.30;4.90;;;;;;;13.20;76.27;100623.67;106012;1271;112753;-72
2022/09/22 07:39:55;;;;;;;5.70;4.90;;;;;;;13.29;75.58;100623.49;105864;1271;138664;-73
2022/09/22 07:42:30;;;;;;;7.80;4.40;;;;;;;13.33;75.18;100627.57;106010;1271;112283;-72
2022/09/22 07:45:14;;;;;;;5.60;4.30;;;;;;;13.40;75.08;100625.70;105900;1271;138798;-72
2022/09/22 07:50:38;;;;;;;7.20;5.00;;;;;;;13.70;74.51;100624.38;105976;1271;138967;-73
2022/09/22 07:53:10;;;;;;;5.40;4.50;;;;;;;13.86;74.12;100623.40;106070;1271;109186;-73
2022/09/22 07:55:42;;;;;;;5.90;4.80;;;;;;;14.02;73.95;100626.06;106033;1271;108624;-73
2022/09/22 07:58:14;;;;;;;5.60;4.40;;;;;;;14.20;73.67;100620.27;105844;1271;139511;-72
2022/09/22 08:00:48;;;;;;;7.10;4.60;;;;;;;14.43;73.42;100623.00;106081;1271;97818;-74
2022/09/22 08:03:20;;;;;;;4.80;4.30;;;;;;;14.73;72.65;100617.19;105967;1271;138668;-71
2022/09/22 08:05:58;;;;;;;5.10;3.90;;;;;;;15.10;72.46;100616.45;106084;1271;107618;-72
2022/09/22 08:08:37;;;;;;;4.90;4.20;;;;;;;15.63;71.24;100618.72;105986;1271;138629;-72
2022/09/22 08:11:13;;;;;;;4.90;3.90;;;;;;;15.82;70.62;100619.77;105980;1271;97917;-72
2022/09/22 08:13:53;;;;;;;4.30;3.60;;;;;;;15.94;69.77;100619.19;106047;1271;97832;-72
2022/09/22 08:16:27;;;;;;;5.70;3.90;;;;;;;16.09;69.34;100622.49;105981;1271;139960;-71
2022/09/22 08:19:04;;;;;;;3.70;3.40;;;;;;;16.21;68.65;100612.61;106094;1271;109015;-71
2022/09/22 08:21:37;;;;;;;5.10;4.40;;;;;;;16.20;67.83;100619.33;106002;1271;138566;-72
2022/09/22 08:24:21;;;;;;;7.50;4.60;;;;;;;16.12;67.70;100620.73;106054;1271;97842;-70
2022/09/22 08:26:55;;;;;;;4.60;3.70;;;;;;;16.29;67.76;100622.89;106037;1271;138676;-71
2022/09/22 08:29:30;;;;;;;4.70;3.80;;;;;;;17.00;67.47;100619.25;106112;1271;113251;-72
2022/09/22 08:32:02;;;;;;;5.20;4.10;;;;;;;18.03;66.56;100623.33;106016;1271;109003;-72
2022/09/22 08:34:35;;;;;;;5.40;4.10;;;;;;;18.69;65.56;100619.08;105984;1271;137971;-71
2022/09/22 08:37:08;;;;;;;5.10;4.30;;;;;;;18.95;64.31;100617.52;106128;1272;99184;-72
2022/09/22 08:39:40;;;;;;;5.80;4.20;;;;;;;19.12;63.82;100612.58;106013;1271;137864;-71
2022/09/22 08:42:19;;;;;;;3.80;3.10;;;;;;;19.95;63.77;100615.09;106180;1271;112472;-72
2022/09/22 08:45:02;;;;;;;4.90;2.90;;;;;;;20.77;61.54;100605.00;106077;1271;137965;-72
2022/09/22 08:53:34;;;;;;;3.70;2.80;;;;;;;21.31;57.34;100600.73;106158;1273;97720;-72
2022/09/22 08:56:17;;;;;;;4.50;3.10;;;;;;;21.42;56.96;100599.45;106177;1271;111439;-71
2022/09/22 08:58:57;;;;;;;4.00;3.00;;;;;;;21.59;56.60;100603.14;106017;1271;137751;-72
2022/09/22 09:01:53;;;;;;;5.00;3.10;;;;;;;22.14;57.46;100601.17;106068;1271;109313;-72
2022/09/22 09:04:52;;;;;;;4.00;2.80;;;;;;;23.04;56.30;100595.90;107650;1271;138401;-72
2022/09/22 09:07:36;;;;;;;3.20;2.70;;;;;;;23.70;53.34;100588.91;107789;1271;96069;-73
2022/09/22 09:10:24;;;;;;;5.80;2.50;;;;;;;23.86;52.97;100593.25;107714;1271;138280;-72
2022/09/22 09:13:09;;;;;;;4.00;2.70;;;;;;;24.43;52.00;100584.59;107822;1271;108937;-72
2022/09/22 09:15:54;;;;;;;4.10;3.70;;;;;;;24.72;51.11;100575.13;107679;1271;137731;-72
2022/09/22 09:18:31;;;;;;;5.20;3.20;;;;;;;24.91;50.32;100571.23;107772;1271;96246;-73
2022/09/22 09:21:07;;;;;;;2.90;2.20;;;;;;;24.73;48.74;100572.98;107689;1271;137855;-72
2022/09/22 09:23:46;;;;;;;3.50;2.50;;;;;;;24.48;48.25;100576.17;107801;1271;111523;-72
2022/09/22 09:26:38;;;;;;;6.00;2.40;;;;;;;24.06;48.07;100580.52;107690;1271;138137;-72
2022/09/22 09:29:18;;;;;;;4.70;2.20;;;;;;;23.86;48.51;100576.77;107812;1271;109578;-72
2022/09/22 09:31:52;;;;;;;3.50;2.60;;;;;;;23.75;48.18;100574.11;107768;1271;96509;-72
2022/09/22 09:34:28;;;;;;;4.50;2.10;;;;;;;23.52;48.17;100573.64;107685;1271;137616;-72
2022/09/22 09:37:12;;;;;;;4.80;2.10;;;;;;;23.33;48.22;100576.23;107805;1271;112546;-72
2022/09/22 09:39:45;;;;;;;3.80;2.60;;;;;;;23.33;48.36;100573.96;106208;1271;137994;-72
2022/09/22 09:42:24;;;;;;;5.70;2.20;;;;;;;23.55;48.44;100574.14;106169;1271;108474;-72
2022/09/22 09:45:01;;;;;;;4.00;2.40;;;;;;;23.54;47.92;100569.75;106068;1271;138071;-72
2022/09/22 09:47:53;;;;;;;2.90;2.10;;;;;;;23.69;47.99;100563.59;106188;1271;97812;-72
2022/09/22 09:50:30;;;;;;;4.20;2.10;;;;;;;24.19;47.73;100558.31;106188;1271;112528;-72
2022/09/22 09:53:03;;;;;;;4.40;2.00;;;;;;;24.05;46.51;100554.92;106170;1271;108805;-71
2022/09/22 09:55:39;;;;;;;4.80;2.50;;;;;;;23.65;45.65;100565.46;106119;1271;108826;-72
2022/09/22 10:00:29;;;;;;;5.20;2.60;;;;;;;23.29;46.02;100563.02;106050;1271;138839;-71
2022/09/22 10:01:08;;;;;;;6.30;1.90;;;;;;;23.03;46.06;100567.25;106186;1271;97826;-72
2022/09/22 10:03:50;;;;;;;3.80;1.80;;;;;;;22.70;45.85;100563.95;106082;1271;137790;-72
2022/09/22 10:06:26;;;;;;;5.50;2.20;;;;;;;22.36;46.10;100563.92;106228;1271;107811;-72
2022/09/22 10:08:58;;;;;;;5.20;2.30;;;;;;;22.12;46.25;100562.98;106095;1271;138329;-73
2022/09/22 10:11:32;;;;;;;3.00;2.30;;;;;;;21.98;46.54;100562.02;106139;1271;97842;-71
2022/09/22 10:14:04;;;;;;;2.90;2.00;;;;;;;21.89;46.84;100562.73;106205;1271;97896;-72
2022/09/22 10:16:50;;;;;;;7.20;2.30;;;;;;;21.68;46.24;100562.63;106096;1271;137688;-71
2022/09/22 10:19:27;;;;;;;3.20;1.70;;;;;;;21.23;45.59;100559.71;106181;1271;108850;-71
2022/09/22 10:22:26;;;;;;;3.30;1.80;;;;;;;20.82;46.22;100562.11;106029;1271;138122;-71
2022/09/22 10:25:01;;;;;;;4.80;1.60;;;;;;;20.53;47.00;100560.39;106192;1271;97831;-71
2022/09/22 10:27:34;;;;;;;3.00;1.70;;;;;;;20.28;46.64;100563.48;106066;1271;137696;-72
2022/09/22 10:30:26;;;;;;;2.90;1.80;;;;;;;19.97;46.70;100567.29;106188;1271;112671;-72
2022/09/22 10:33:21;;;;;;;2.80;1.90;;;;;;;19.63;47.23;100573.05;106114;1271;138688;-72
2022/09/22 10:36:03;;;;;;;4.50;1.80;;;;;;;19.29;47.83;100579.29;106112;1270;108984;-71
2022/09/22 10:38:43;;;;;;;4.20;2.10;;;;;;;19.05;48.95;100576.58;106109;1271;138134;-72
2022/09/22 10:41:25;;;;;;;2.40;2.00;;;;;;;18.86;49.17;100571.95;106146;1271;97980;-72
2022/09/22 10:44:00;;;;;;;2.40;1.90;;;;;;;18.63;49.42;100571.70;106128;1271;112357;-72
2022/09/22 10:47:24;;;;;;;3.30;2.00;;;;;;;18.38;49.64;100572.54;105972;1273;137809;-72
2022/09/22 10:50:40;;;;;;;2.30;1.70;;;;;;;18.20;49.95;100572.36;106117;1271;109071;-72
2022/09/22 10:53:44;;;;;;;1.60;1.50;;;;;;;18.03;50.47;100569.45;107834;1271;95829;-72
2022/09/22 10:56:30;;;;;;;2.30;1.80;;;;;;;18.05;51.04;100562.13;107788;1271;96623;-72
2022/09/22 10:59:25;;;;;;;4.50;2.00;;;;;;;18.05;51.16;100558.55;107811;1269;112060;-72
2022/09/22 11:02:17;;;;;;;3.70;1.80;;;;;;;17.96;51.25;100564.62;107809;1271;108841;-72
2022/09/22 11:05:01;;;;;;;3.30;2.60;;;;;;;17.78;51.05;100564.02;107572;1273;137932;-72
2022/09/22 11:14:01;;;;;;;2.30;1.90;;;;;;;17.08;51.24;100563.88;107833;1271;112452;-72
2022/09/22 11:16:49;;;;;;;1.80;1.70;;;;;;;16.89;51.60;100561.89;107697;1271;137997;-72
2022/09/22 11:19:46;;;;;;;3.80;1.60;;;;;;;16.73;51.72;100556.94;107660;1271;108976;-72
2022/09/22 11:22:32;;;;;;;1.40;1.30;;;;;;;16.62;51.45;100556.09;107667;1271;138528;-71
2022/09/22 11:25:21;;;;;;;3.80;1.90;;;;;;;16.54;51.19;100555.33;107797;1271;95730;-72
2022/09/22 11:28:09;;;;;;;3.10;1.50;;;;;;;16.43;51.20;100560.94;107725;1271;137827;-72
2022/09/22 11:30:47;;;;;;;3.10;1.70;;;;;;;16.28;51.23;100562.38;107801;1271;107557;-72
2022/09/22 11:33:57;;;;;;;2.80;1.70;;;;;;;16.13;51.55;100561.09;107670;1270;138742;-71
2022/09/22 11:36:43;;;;;;;4.10;1.90;;;;;;;15.92;52.01;100559.29;107275;1277;95946;-71
2022/09/22 11:39:42;;;;;;;5.30;2.20;;;;;;;15.73;52.53;100561.98;107138;1278;138743;-72
2022/09/22 11:42:28;;;;;;;2.90;2.00;;;;;;;15.54;52.96;100561.67;107199;1277;112411;-71
2022/09/22 11:45:08;;;;;;;1.70;1.60;;;;;;;15.37;53.26;100563.66;105601;1280;138487;-73
2022/09/22 11:47:53;;;;;;;4.00;1.80;;;;;;;15.23;53.59;100564.17;105621;1281;107858;-72
2022/09/22 11:50:43;;;;;;;2.20;1.70;;;;;;;15.09;54.09;100569.18;105680;1278;97873;-73
2022/09/22 11:53:31;;;;;;;2.90;1.80;;;;;;;14.96;54.40;100565.02;105749;1277;97823;-72
2022/09/22 11:56:21;;;;;;;5.40;4.20;;;;;;;14.86;54.96;100568.81;105679;1278;112919;-73
2022/09/22 11:58:59;;;;;;;4.10;2.60;;;;;;;14.80;55.30;100563.84;105578;1278;137807;-73
2022/09/22 12:01:36;;;;;;;2.50;2.20;;;;;;;14.77;55.57;100565.73;105734;1278;108773;-72
2022/09/22 12:04:20;;;;;;;5.30;2.90;;;;;;;14.75;56.00;100561.08;105606;1278;138179;-73
2022/09/22 12:06:55;;;;;;;1.90;1.70;;;;;;;14.76;56.29;100559.66;105806;1277;97967;-73
2022/09/22 12:09:36;;;;;;;2.50;2.20;;;;;;;14.78;56.24;100558.31;105729;1278;137729;-72
2022/09/22 12:12:16;;;;;;;2.40;1.90;;;;;;;14.81;56.24;100561.52;105767;1277;107648;-73